sensor_id;sensor_type;location;lat;lon;timestamp;pressure;altitude;pressure_sealevel;temperature
13570;BMP180;6856;51.460;7.158;2022-09-09T00:02:12;99738.00;;;20.50
13570;BMP180;6856;51.460;7.158;2022-09-09T00:05:00;99723.00;;;20.40
13570;BMP180;6856;51.460;7.158;2022-09-09T00:07:47;99739.00;;;20.40
13570;BMP180;6856;51.460;7.158;2022-09-09T00:10:26;99735.00;;;20.40
13570;BMP180;6856;51.460;7.158;2022-09-09T00:13:12;99729.00;;;20.30
13570;BMP180;6856;51.460;7.158;2022-09-09T00:15:59;99731.00;;;20.30
13570;BMP180;6856;51.460;7.158;2022-09-09T00:18:54;99724.00;;;20.30
13570;BMP180;6856;51.460;7.158;2022-09-09T00:21:35;99721.00;;;20.20
13570;BMP180;6856;51.460;7.158;2022-09-09T00:24:22;99725.00;;;20.20
13570;BMP180;6856;51.460;7.158;2022-09-09T00:27:04;99724.00;;;20.20
13570;BMP180;6856;51.460;7.158;2022-09-09T00:29:46;99720.00;;;20.20
13570;BMP180;6856;51.460;7.158;2022-09-09T00:32:21;99723.00;;;20.10
13570;BMP180;6856;51.460;7.158;2022-09-09T00:35:01;99699.00;;;20.10
13570;BMP180;6856;51.460;7.158;2022-09-09T00:37:37;99718.00;;;20.10
13570;BMP180;6856;51.460;7.158;2022-09-09T00:40:28;99714.00;;;20.00
13570;BMP180;6856;51.460;7.158;2022-09-09T00:43:26;99720.00;;;20.00
13570;BMP180;6856;51.460;7.158;2022-09-09T00:46:48;99718.00;;;20.00
13570;BMP180;6856;51.460;7.158;2022-09-09T00:49:42;99710.00;;;20.00
13570;BMP180;6856;51.460;7.158;2022-09-09T00:52:32;99678.00;;;20.00
13570;BMP180;6856;51.460;7.158;2022-09-09T00:55:17;99728.00;;;20.00
13570;BMP180;6856;51.460;7.158;2022-09-09T00:57:54;99710.00;;;19.90
13570;BMP180;6856;51.460;7.158;2022-09-09T01:00:30;99711.00;;;19.90
13570;BMP180;6856;51.460;7.158;2022-09-09T01:03:22;99716.00;;;19.90
13570;BMP180;6856;51.460;7.158;2022-09-09T01:06:11;99711.00;;;20.00
13570;BMP180;6856;51.460;7.158;2022-09-09T01:09:07;99711.00;;;20.00
13570;BMP180;6856;51.460;7.158;2022-09-09T01:11:55;99721.00;;;20.00
13570;BMP180;6856;51.460;7.158;2022-09-09T01:14:40;99713.00;;;20.00
13570;BMP180;6856;51.460;7.158;2022-09-09T01:17:21;99713.00;;;19.90
13570;BMP180;6856;51.460;7.158;2022-09-09T01:20:04;99708.00;;;19.90
13570;BMP180;6856;51.460;7.158;2022-09-09T01:22:55;99680.00;;;19.90
13570;BMP180;6856;51.460;7.158;2022-09-09T01:26:16;99713.00;;;19.90
13570;BMP180;6856;51.460;7.158;2022-09-09T01:28:52;99716.00;;;19.90
13570;BMP180;6856;51.460;7.158;2022-09-09T01:31:30;99706.00;;;19.90
13570;BMP180;6856;51.460;7.158;2022-09-09T01:34:11;99704.00;;;19.90
13570;BMP180;6856;51.460;7.158;2022-09-09T01:36:51;99716.00;;;19.90
13570;BMP180;6856;51.460;7.158;2022-09-09T01:39:27;99705.00;;;19.90
13570;BMP180;6856;51.460;7.158;2022-09-09T01:42:03;99706.00;;;20.00
13570;BMP180;6856;51.460;7.158;2022-09-09T01:44:38;99694.00;;;20.00
13570;BMP180;6856;51.460;7.158;2022-09-09T01:47:12;99692.00;;;20.00
13570;BMP180;6856;51.460;7.158;2022-09-09T01:49:45;99689.00;;;20.00
13570;BMP180;6856;51.460;7.158;2022-09-09T01:52:19;99690.00;;;20.00
13570;BMP180;6856;51.460;7.158;2022-09-09T01:54:52;99706.00;;;20.00
13570;BMP180;6856;51.460;7.158;2022-09-09T01:57:33;99699.00;;;20.00
13570;BMP180;6856;51.460;7.158;2022-09-09T02:00:13;99695.00;;;20.10
13570;BMP180;6856;51.460;7.158;2022-09-09T02:03:00;99697.00;;;20.10
13570;BMP180;6856;51.460;7.158;2022-09-09T02:05:38;99684.00;;;20.10
13570;BMP180;6856;51.460;7.158;2022-09-09T02:08:20;99679.00;;;20.10
13570;BMP180;6856;51.460;7.158;2022-09-09T02:11:01;99701.00;;;20.10
13570;BMP180;6856;51.460;7.158;2022-09-09T02:13:40;99710.00;;;20.10
13570;BMP180;6856;51.460;7.158;2022-09-09T02:16:24;99690.00;;;20.00
13570;BMP180;6856;51.460;7.158;2022-09-09T02:19:02;99693.00;;;20.00
13570;BMP180;6856;51.460;7.158;2022-09-09T02:21:43;99697.00;;;19.80
13570;BMP180;6856;51.460;7.158;2022-09-09T02:24:17;99708.00;;;20.00
13570;BMP180;6856;51.460;7.158;2022-09-09T02:26:54;99706.00;;;20.00
13570;BMP180;6856;51.460;7.158;2022-09-09T02:29:34;99701.00;;;20.00
13570;BMP180;6856;51.460;7.158;2022-09-09T02:32:14;99700.00;;;20.00
13570;BMP180;6856;51.460;7.158;2022-09-09T02:34:53;99699.00;;;20.00
13570;BMP180;6856;51.460;7.158;2022-09-09T02:37:34;99710.00;;;20.00
13570;BMP180;6856;51.460;7.158;2022-09-09T02:40:11;99700.00;;;20.00
13570;BMP180;6856;51.460;7.158;2022-09-09T02:42:49;99713.00;;;20.00
13570;BMP180;6856;51.460;7.158;2022-09-09T02:45:29;99709.00;;;19.90
13570;BMP180;6856;51.460;7.158;2022-09-09T02:48:14;99703.00;;;20.00
13570;BMP180;6856;51.460;7.158;2022-09-09T02:50:59;99688.00;;;19.90
13570;BMP180;6856;51.460;7.158;2022-09-09T02:53:43;99698.00;;;19.90
13570;BMP180;6856;51.460;7.158;2022-09-09T02:56:30;99698.00;;;19.90
13570;BMP180;6856;51.460;7.158;2022-09-09T02:59:05;99693.00;;;19.90
13570;BMP180;6856;51.460;7.158;2022-09-09T03:01:41;99703.00;;;20.00
13570;BMP180;6856;51.460;7.158;2022-09-09T03:04:16;99658.00;;;20.00
13570;BMP180;6856;51.460;7.158;2022-09-09T03:06:49;99700.00;;;20.00
13570;BMP180;6856;51.460;7.158;2022-09-09T03:09:26;99700.00;;;20.00
13570;BMP180;6856;51.460;7.158;2022-09-09T03:12:00;99698.00;;;20.00
13570;BMP180;6856;51.460;7.158;2022-09-09T03:14:34;99691.00;;;20.00
13570;BMP180;6856;51.460;7.158;2022-09-09T03:17:09;99688.00;;;20.00
13570;BMP180;6856;51.460;7.158;2022-09-09T03:19:42;99684.00;;;20.00
13570;BMP180;6856;51.460;7.158;2022-09-09T03:22:16;99678.00;;;20.00
13570;BMP180;6856;51.460;7.158;2022-09-09T03:24:49;99674.00;;;20.00
13570;BMP180;6856;51.460;7.158;2022-09-09T03:27:22;99652.00;;;20.00
13570;BMP180;6856;51.460;7.158;2022-09-09T03:29:56;99674.00;;;20.00
13570;BMP180;6856;51.460;7.158;2022-09-09T03:32:31;99678.00;;;20.00
13570;BMP180;6856;51.460;7.158;2022-09-09T03:35:05;99676.00;;;20.00
13570;BMP180;6856;51.460;7.158;2022-09-09T03:37:38;99678.00;;;19.90
13570;BMP180;6856;51.460;7.158;2022-09-09T03:40:15;99678.00;;;20.00
13570;BMP180;6856;51.460;7.158;2022-09-09T03:42:48;99679.00;;;20.00
13570;BMP180;6856;51.460;7.158;2022-09-09T03:45:22;99669.00;;;19.90
13570;BMP180;6856;51.460;7.158;2022-09-09T03:47:57;99668.00;;;19.90
13570;BMP180;6856;51.460;7.158;2022-09-09T03:50:30;99660.00;;;19.90
13570;BMP180;6856;51.460;7.158;2022-09-09T03:53:04;99682.00;;;19.90
13570;BMP180;6856;51.460;7.158;2022-09-09T03:55:37;99677.00;;;19.90
13570;BMP180;6856;51.460;7.158;2022-09-09T03:58:14;99684.00;;;19.90
13570;BMP180;6856;51.460;7.158;2022-09-09T04:00:55;99680.00;;;19.80
13570;BMP180;6856;51.460;7.158;2022-09-09T04:03:32;99660.00;;;19.80
13570;BMP180;6856;51.460;7.158;2022-09-09T04:06:08;99683.00;;;19.80
13570;BMP180;6856;51.460;7.158;2022-09-09T04:08:43;99673.00;;;19.80
13570;BMP180;6856;51.460;7.158;2022-09-09T04:11:17;99681.00;;;19.80
13570;BMP180;6856;51.460;7.158;2022-09-09T04:13:50;99673.00;;;19.80
13570;BMP180;6856;51.460;7.158;2022-09-09T04:16:26;99676.00;;;19.80
13570;BMP180;6856;51.460;7.158;2022-09-09T04:19:01;99691.00;;;19.80
13570;BMP180;6856;51.460;7.158;2022-09-09T04:21:36;99683.00;;;19.70
13570;BMP180;6856;51.460;7.158;2022-09-09T04:24:09;99683.00;;;19.80
13570;BMP180;6856;51.460;7.158;2022-09-09T04:26:45;99688.00;;;19.80
13570;BMP180;6856;51.460;7.158;2022-09-09T04:29:19;99680.00;;;19.80
13570;BMP180;6856;51.460;7.158;2022-09-09T04:31:52;99683.00;;;19.80
13570;BMP180;6856;51.460;7.158;2022-09-09T04:34:27;99686.00;;;19.80
13570;BMP180;6856;51.460;7.158;2022-09-09T04:37:01;99669.00;;;19.80
13570;BMP180;6856;51.460;7.158;2022-09-09T04:39:34;99679.00;;;19.80
13570;BMP180;6856;51.460;7.158;2022-09-09T04:42:08;99679.00;;;19.80
13570;BMP180;6856;51.460;7.158;2022-09-09T04:44:42;99685.00;;;19.80
13570;BMP180;6856;51.460;7.158;2022-09-09T04:47:15;99680.00;;;19.80
13570;BMP180;6856;51.460;7.158;2022-09-09T04:49:50;99690.00;;;19.80
13570;BMP180;6856;51.460;7.158;2022-09-09T04:52:26;99686.00;;;19.80
13570;BMP180;6856;51.460;7.158;2022-09-09T04:55:00;99645.00;;;19.80
13570;BMP180;6856;51.460;7.158;2022-09-09T04:57:34;99682.00;;;19.80
13570;BMP180;6856;51.460;7.158;2022-09-09T05:00:10;99691.00;;;19.80
13570;BMP180;6856;51.460;7.158;2022-09-09T05:02:46;99683.00;;;19.80
13570;BMP180;6856;51.460;7.158;2022-09-09T05:05:21;99680.00;;;19.80
13570;BMP180;6856;51.460;7.158;2022-09-09T05:08:01;99680.00;;;19.90
13570;BMP180;6856;51.460;7.158;2022-09-09T05:10:40;99680.00;;;19.90
13570;BMP180;6856;51.460;7.158;2022-09-09T05:13:17;99695.00;;;19.90
13570;BMP180;6856;51.460;7.158;2022-09-09T05:15:52;99681.00;;;19.80
13570;BMP180;6856;51.460;7.158;2022-09-09T05:18:26;99687.00;;;19.90
13570;BMP180;6856;51.460;7.158;2022-09-09T05:21:01;99686.00;;;19.90
13570;BMP180;6856;51.460;7.158;2022-09-09T05:23:35;99681.00;;;19.90
13570;BMP180;6856;51.460;7.158;2022-09-09T05:26:13;99682.00;;;19.90
13570;BMP180;6856;51.460;7.158;2022-09-09T05:28:49;99683.00;;;19.90
13570;BMP180;6856;51.460;7.158;2022-09-09T05:31:23;99688.00;;;19.90
13570;BMP180;6856;51.460;7.158;2022-09-09T05:34:00;99689.00;;;20.00
13570;BMP180;6856;51.460;7.158;2022-09-09T05:36:35;99636.00;;;20.00
13570;BMP180;6856;51.460;7.158;2022-09-09T05:39:09;99672.00;;;20.00
13570;BMP180;6856;51.460;7.158;2022-09-09T05:41:44;99694.00;;;20.00
13570;BMP180;6856;51.460;7.158;2022-09-09T05:44:18;99684.00;;;20.00
13570;BMP180;6856;51.460;7.158;2022-09-09T05:46:51;99691.00;;;20.00
13570;BMP180;6856;51.460;7.158;2022-09-09T05:49:26;99682.00;;;20.00
13570;BMP180;6856;51.460;7.158;2022-09-09T05:52:04;99688.00;;;20.00
13570;BMP180;6856;51.460;7.158;2022-09-09T05:54:38;99688.00;;;20.10
13570;BMP180;6856;51.460;7.158;2022-09-09T05:57:12;99692.00;;;20.10
13570;BMP180;6856;51.460;7.158;2022-09-09T05:59:45;99689.00;;;20.10
13570;BMP180;6856;51.460;7.158;2022-09-09T06:02:19;99686.00;;;20.10
13570;BMP180;6856;51.460;7.158;2022-09-09T06:04:52;99671.00;;;20.10
13570;BMP180;6856;51.460;7.158;2022-09-09T06:07:33;99702.00;;;20.10
13570;BMP180;6856;51.460;7.158;2022-09-09T06:10:07;99694.00;;;20.10
13570;BMP180;6856;51.460;7.158;2022-09-09T06:12:41;99701.00;;;20.10
13570;BMP180;6856;51.460;7.158;2022-09-09T06:15:15;99683.00;;;20.10
13570;BMP180;6856;51.460;7.158;2022-09-09T06:17:54;99699.00;;;20.10
13570;BMP180;6856;51.460;7.158;2022-09-09T06:20:28;99697.00;;;20.10
13570;BMP180;6856;51.460;7.158;2022-09-09T06:23:04;99723.00;;;20.10
13570;BMP180;6856;51.460;7.158;2022-09-09T06:25:38;99704.00;;;20.20
13570;BMP180;6856;51.460;7.158;2022-09-09T06:28:12;99692.00;;;20.20
13570;BMP180;6856;51.460;7.158;2022-09-09T06:30:46;99680.00;;;20.20
13570;BMP180;6856;51.460;7.158;2022-09-09T06:33:19;99702.00;;;20.20
13570;BMP180;6856;51.460;7.158;2022-09-09T06:35:54;99699.00;;;20.20
13570;BMP180;6856;51.460;7.158;2022-09-09T06:38:30;99692.00;;;20.20
13570;BMP180;6856;51.460;7.158;2022-09-09T06:41:11;99697.00;;;20.20
13570;BMP180;6856;51.460;7.158;2022-09-09T06:43:53;99694.00;;;20.30
13570;BMP180;6856;51.460;7.158;2022-09-09T06:46:29;99694.00;;;20.30
13570;BMP180;6856;51.460;7.158;2022-09-09T06:49:08;99695.00;;;20.30
13570;BMP180;6856;51.460;7.158;2022-09-09T06:51:41;99704.00;;;20.30
13570;BMP180;6856;51.460;7.158;2022-09-09T06:54:17;99647.00;;;20.30
13570;BMP180;6856;51.460;7.158;2022-09-09T06:56:51;99688.00;;;20.40
13570;BMP180;6856;51.460;7.158;2022-09-09T06:59:25;99672.00;;;20.40
13570;BMP180;6856;51.460;7.158;2022-09-09T07:01:59;99700.00;;;20.30
13570;BMP180;6856;51.460;7.158;2022-09-09T07:04:33;99708.00;;;20.40
13570;BMP180;6856;51.460;7.158;2022-09-09T07:07:06;99705.00;;;20.40
13570;BMP180;6856;51.460;7.158;2022-09-09T07:09:43;99702.00;;;20.50
13570;BMP180;6856;51.460;7.158;2022-09-09T07:12:17;99707.00;;;20.50
13570;BMP180;6856;51.460;7.158;2022-09-09T07:14:50;99696.00;;;20.50
13570;BMP180;6856;51.460;7.158;2022-09-09T07:17:24;99713.00;;;20.50
13570;BMP180;6856;51.460;7.158;2022-09-09T07:19:57;99707.00;;;20.60
13570;BMP180;6856;51.460;7.158;2022-09-09T07:22:31;99723.00;;;20.70
13570;BMP180;6856;51.460;7.158;2022-09-09T07:25:10;99705.00;;;20.80
13570;BMP180;6856;51.460;7.158;2022-09-09T07:27:43;99710.00;;;20.80
13570;BMP180;6856;51.460;7.158;2022-09-09T07:30:17;99702.00;;;20.90
13570;BMP180;6856;51.460;7.158;2022-09-09T07:32:58;99732.00;;;21.00
13570;BMP180;6856;51.460;7.158;2022-09-09T07:35:32;99735.00;;;21.00
13570;BMP180;6856;51.460;7.158;2022-09-09T07:38:06;99731.00;;;21.00
13570;BMP180;6856;51.460;7.158;2022-09-09T07:40:41;99721.00;;;21.10
13570;BMP180;6856;51.460;7.158;2022-09-09T07:43:14;99715.00;;;21.10
13570;BMP180;6856;51.460;7.158;2022-09-09T07:45:57;99730.00;;;21.20
13570;BMP180;6856;51.460;7.158;2022-09-09T07:49:04;99675.00;;;21.20
13570;BMP180;6856;51.460;7.158;2022-09-09T07:51:59;99725.00;;;21.30
13570;BMP180;6856;51.460;7.158;2022-09-09T07:55:05;99720.00;;;21.40
13570;BMP180;6856;51.460;7.158;2022-09-09T07:57:42;99735.00;;;21.40
13570;BMP180;6856;51.460;7.158;2022-09-09T08:00:16;99686.00;;;21.60
13570;BMP180;6856;51.460;7.158;2022-09-09T08:02:50;99730.00;;;21.70
13570;BMP180;6856;51.460;7.158;2022-09-09T08:05:26;99728.00;;;21.80
13570;BMP180;6856;51.460;7.158;2022-09-09T08:08:11;99741.00;;;21.80
13570;BMP180;6856;51.460;7.158;2022-09-09T08:11:10;99747.00;;;21.90
13570;BMP180;6856;51.460;7.158;2022-09-09T08:13:45;99746.00;;;21.90
13570;BMP180;6856;51.460;7.158;2022-09-09T08:16:27;99746.00;;;22.00
13570;BMP180;6856;51.460;7.158;2022-09-09T08:19:03;99722.00;;;22.00
13570;BMP180;6856;51.460;7.158;2022-09-09T08:21:40;99722.00;;;22.10
13570;BMP180;6856;51.460;7.158;2022-09-09T08:24:13;99732.00;;;22.10
13570;BMP180;6856;51.460;7.158;2022-09-09T08:26:48;99740.00;;;22.20
13570;BMP180;6856;51.460;7.158;2022-09-09T08:29:29;99740.00;;;22.30
13570;BMP180;6856;51.460;7.158;2022-09-09T08:32:03;99740.00;;;22.30
13570;BMP180;6856;51.460;7.158;2022-09-09T08:34:39;99740.00;;;22.30
13570;BMP180;6856;51.460;7.158;2022-09-09T08:37:17;99762.00;;;22.30
13570;BMP180;6856;51.460;7.158;2022-09-09T08:39:52;99746.00;;;22.40
13570;BMP180;6856;51.460;7.158;2022-09-09T08:42:36;99744.00;;;22.40
13570;BMP180;6856;51.460;7.158;2022-09-09T08:45:29;99738.00;;;22.40
13570;BMP180;6856;51.460;7.158;2022-09-09T08:48:23;99738.00;;;22.60
13570;BMP180;6856;51.460;7.158;2022-09-09T08:51:02;99736.00;;;22.60
13570;BMP180;6856;51.460;7.158;2022-09-09T08:53:45;99736.00;;;22.70
13570;BMP180;6856;51.460;7.158;2022-09-09T08:56:23;99744.00;;;22.80
13570;BMP180;6856;51.460;7.158;2022-09-09T08:59:01;99747.00;;;22.90
13570;BMP180;6856;51.460;7.158;2022-09-09T09:01:53;99752.00;;;23.00
13570;BMP180;6856;51.460;7.158;2022-09-09T09:04:44;99746.00;;;23.00
13570;BMP180;6856;51.460;7.158;2022-09-09T09:07:35;99753.00;;;23.10
13570;BMP180;6856;51.460;7.158;2022-09-09T09:10:29;99752.00;;;23.20
13570;BMP180;6856;51.460;7.158;2022-09-09T09:13:18;99760.00;;;23.30
13570;BMP180;6856;51.460;7.158;2022-09-09T09:16:00;99749.00;;;23.40
13570;BMP180;6856;51.460;7.158;2022-09-09T09:18:35;99744.00;;;23.50
13570;BMP180;6856;51.460;7.158;2022-09-09T09:21:16;99770.00;;;23.60
13570;BMP180;6856;51.460;7.158;2022-09-09T09:23:58;99749.00;;;23.60
13570;BMP180;6856;51.460;7.158;2022-09-09T09:26:34;99765.00;;;23.70
13570;BMP180;6856;51.460;7.158;2022-09-09T09:29:12;99753.00;;;23.70
13570;BMP180;6856;51.460;7.158;2022-09-09T09:31:52;99732.00;;;23.70
13570;BMP180;6856;51.460;7.158;2022-09-09T09:34:28;99752.00;;;23.80
13570;BMP180;6856;51.460;7.158;2022-09-09T09:37:12;99757.00;;;23.80
13570;BMP180;6856;51.460;7.158;2022-09-09T09:39:50;99758.00;;;23.90
13570;BMP180;6856;51.460;7.158;2022-09-09T09:42:49;99764.00;;;24.00
13570;BMP180;6856;51.460;7.158;2022-09-09T09:45:31;99748.00;;;24.00
13570;BMP180;6856;51.460;7.158;2022-09-09T09:48:09;99776.00;;;24.00
13570;BMP180;6856;51.460;7.158;2022-09-09T09:50:52;99769.00;;;24.00
13570;BMP180;6856;51.460;7.158;2022-09-09T09:53:32;99763.00;;;24.00
13570;BMP180;6856;51.460;7.158;2022-09-09T09:56:12;99762.00;;;24.10
13570;BMP180;6856;51.460;7.158;2022-09-09T09:58:55;99774.00;;;24.10
13570;BMP180;6856;51.460;7.158;2022-09-09T10:01:32;99777.00;;;24.10
13570;BMP180;6856;51.460;7.158;2022-09-09T10:04:16;99772.00;;;24.10
13570;BMP180;6856;51.460;7.158;2022-09-09T10:06:52;99781.00;;;24.10
13570;BMP180;6856;51.460;7.158;2022-09-09T10:09:28;99766.00;;;24.10
13570;BMP180;6856;51.460;7.158;2022-09-09T10:12:19;99776.00;;;24.10
13570;BMP180;6856;51.460;7.158;2022-09-09T10:15:07;99762.00;;;24.00
13570;BMP180;6856;51.460;7.158;2022-09-09T10:17:57;99771.00;;;24.00
13570;BMP180;6856;51.460;7.158;2022-09-09T10:20:46;99771.00;;;23.90
13570;BMP180;6856;51.460;7.158;2022-09-09T10:24:05;99745.00;;;23.70
13570;BMP180;6856;51.460;7.158;2022-09-09T10:26:52;99760.00;;;23.90
13570;BMP180;6856;51.460;7.158;2022-09-09T10:29:51;99760.00;;;23.90
13570;BMP180;6856;51.460;7.158;2022-09-09T10:32:38;99755.00;;;24.00
13570;BMP180;6856;51.460;7.158;2022-09-09T10:35:26;99749.00;;;24.10
13570;BMP180;6856;51.460;7.158;2022-09-09T10:38:17;99772.00;;;24.00
13570;BMP180;6856;51.460;7.158;2022-09-09T10:41:16;99754.00;;;24.30
13570;BMP180;6856;51.460;7.158;2022-09-09T10:44:12;99754.00;;;24.30
13570;BMP180;6856;51.460;7.158;2022-09-09T10:47:11;99748.00;;;24.40
13570;BMP180;6856;51.460;7.158;2022-09-09T10:50:18;99742.00;;;24.40
13570;BMP180;6856;51.460;7.158;2022-09-09T10:53:15;99744.00;;;24.40
13570;BMP180;6856;51.460;7.158;2022-09-09T10:55:56;99748.00;;;24.40
13570;BMP180;6856;51.460;7.158;2022-09-09T10:58:40;99753.00;;;24.40
13570;BMP180;6856;51.460;7.158;2022-09-09T11:01:22;99746.00;;;24.40
13570;BMP180;6856;51.460;7.158;2022-09-09T11:04:02;99744.00;;;24.40
13570;BMP180;6856;51.460;7.158;2022-09-09T11:06:42;99744.00;;;24.40
13570;BMP180;6856;51.460;7.158;2022-09-09T11:09:22;99748.00;;;24.40
13570;BMP180;6856;51.460;7.158;2022-09-09T11:12:01;99741.00;;;24.40
13570;BMP180;6856;51.460;7.158;2022-09-09T11:14:41;99748.00;;;24.40
13570;BMP180;6856;51.460;7.158;2022-09-09T11:17:19;99750.00;;;24.40
13570;BMP180;6856;51.460;7.158;2022-09-09T11:19:54;99743.00;;;24.40
13570;BMP180;6856;51.460;7.158;2022-09-09T11:22:32;99744.00;;;24.40
13570;BMP180;6856;51.460;7.158;2022-09-09T11:25:15;99737.00;;;24.40
13570;BMP180;6856;51.460;7.158;2022-09-09T11:28:11;99712.00;;;24.30
13570;BMP180;6856;51.460;7.158;2022-09-09T11:31:08;99720.00;;;24.40
13570;BMP180;6856;51.460;7.158;2022-09-09T11:34:19;99740.00;;;24.40
13570;BMP180;6856;51.460;7.158;2022-09-09T11:37:14;99733.00;;;24.40
13570;BMP180;6856;51.460;7.158;2022-09-09T11:40:17;99732.00;;;24.40
13570;BMP180;6856;51.460;7.158;2022-09-09T11:43:04;99732.00;;;24.40
13570;BMP180;6856;51.460;7.158;2022-09-09T11:45:40;99724.00;;;24.40
13570;BMP180;6856;51.460;7.158;2022-09-09T11:48:29;99691.00;;;24.50
13570;BMP180;6856;51.460;7.158;2022-09-09T11:51:08;99736.00;;;24.50
13570;BMP180;6856;51.460;7.158;2022-09-09T11:53:50;99730.00;;;24.50
13570;BMP180;6856;51.460;7.158;2022-09-09T11:56:30;99726.00;;;24.50
13570;BMP180;6856;51.460;7.158;2022-09-09T11:59:19;99727.00;;;24.50
13570;BMP180;6856;51.460;7.158;2022-09-09T12:01:57;99734.00;;;24.50
13570;BMP180;6856;51.460;7.158;2022-09-09T12:04:37;99731.00;;;24.50
13570;BMP180;6856;51.460;7.158;2022-09-09T12:07:31;99733.00;;;24.50
13570;BMP180;6856;51.460;7.158;2022-09-09T12:10:22;99751.00;;;24.50
13570;BMP180;6856;51.460;7.158;2022-09-09T12:13:16;99758.00;;;24.50
13570;BMP180;6856;51.460;7.158;2022-09-09T12:16:01;99755.00;;;24.40
13570;BMP180;6856;51.460;7.158;2022-09-09T12:18:46;99762.00;;;24.30
13570;BMP180;6856;51.460;7.158;2022-09-09T12:21:32;99765.00;;;24.20
13570;BMP180;6856;51.460;7.158;2022-09-09T12:24:11;99762.00;;;24.20
13570;BMP180;6856;51.460;7.158;2022-09-09T12:26:54;99761.00;;;24.20
13570;BMP180;6856;51.460;7.158;2022-09-09T12:29:44;99747.00;;;24.20
13570;BMP180;6856;51.460;7.158;2022-09-09T12:32:24;99753.00;;;24.20
13570;BMP180;6856;51.460;7.158;2022-09-09T12:35:03;99753.00;;;24.30
13570;BMP180;6856;51.460;7.158;2022-09-09T12:37:53;99750.00;;;24.20
13570;BMP180;6856;51.460;7.158;2022-09-09T12:40:31;99756.00;;;24.20
13570;BMP180;6856;51.460;7.158;2022-09-09T12:43:18;99747.00;;;24.20
13570;BMP180;6856;51.460;7.158;2022-09-09T12:46:22;99766.00;;;24.10
13570;BMP180;6856;51.460;7.158;2022-09-09T12:49:36;99760.00;;;24.10
13570;BMP180;6856;51.460;7.158;2022-09-09T12:52:18;99757.00;;;24.10
13570;BMP180;6856;51.460;7.158;2022-09-09T12:54:55;99759.00;;;24.10
13570;BMP180;6856;51.460;7.158;2022-09-09T12:57:35;99764.00;;;24.20
13570;BMP180;6856;51.460;7.158;2022-09-09T13:00:17;99753.00;;;24.20
13570;BMP180;6856;51.460;7.158;2022-09-09T13:02:53;99749.00;;;24.20
13570;BMP180;6856;51.460;7.158;2022-09-09T13:05:34;99739.00;;;24.40
13570;BMP180;6856;51.460;7.158;2022-09-09T13:08:11;99721.00;;;24.50
13570;BMP180;6856;51.460;7.158;2022-09-09T13:10:52;99713.00;;;24.50
13570;BMP180;6856;51.460;7.158;2022-09-09T13:13:38;99728.00;;;24.60
13570;BMP180;6856;51.460;7.158;2022-09-09T13:16:25;99704.00;;;24.60
13570;BMP180;6856;51.460;7.158;2022-09-09T13:19:13;99715.00;;;24.60
13570;BMP180;6856;51.460;7.158;2022-09-09T13:21:48;99696.00;;;24.70
13570;BMP180;6856;51.460;7.158;2022-09-09T13:24:29;99711.00;;;24.60
13570;BMP180;6856;51.460;7.158;2022-09-09T13:27:28;99696.00;;;24.60
13570;BMP180;6856;51.460;7.158;2022-09-09T13:30:20;99720.00;;;24.60
13570;BMP180;6856;51.460;7.158;2022-09-09T13:33:21;99707.00;;;24.50
13570;BMP180;6856;51.460;7.158;2022-09-09T13:35:57;99737.00;;;24.50
13570;BMP180;6856;51.460;7.158;2022-09-09T13:38:37;99721.00;;;24.50
13570;BMP180;6856;51.460;7.158;2022-09-09T13:41:19;99726.00;;;24.40
13570;BMP180;6856;51.460;7.158;2022-09-09T13:43:55;99748.00;;;24.30
13570;BMP180;6856;51.460;7.158;2022-09-09T13:46:34;99779.00;;;24.30
13570;BMP180;6856;51.460;7.158;2022-09-09T13:49:21;99779.00;;;24.20
13570;BMP180;6856;51.460;7.158;2022-09-09T13:52:10;99731.00;;;24.10
13570;BMP180;6856;51.460;7.158;2022-09-09T13:54:48;99754.00;;;24.00
13570;BMP180;6856;51.460;7.158;2022-09-09T13:57:24;99764.00;;;23.90
13570;BMP180;6856;51.460;7.158;2022-09-09T14:00:02;99745.00;;;23.80
13570;BMP180;6856;51.460;7.158;2022-09-09T14:02:37;99756.00;;;23.80
13570;BMP180;6856;51.460;7.158;2022-09-09T14:05:12;99738.00;;;23.80
13570;BMP180;6856;51.460;7.158;2022-09-09T14:07:45;99736.00;;;23.80
13570;BMP180;6856;51.460;7.158;2022-09-09T14:10:24;99690.00;;;23.90
13570;BMP180;6856;51.460;7.158;2022-09-09T14:12:57;99740.00;;;23.90
13570;BMP180;6856;51.460;7.158;2022-09-09T14:15:32;99715.00;;;23.90
13570;BMP180;6856;51.460;7.158;2022-09-09T14:18:05;99715.00;;;23.90
13570;BMP180;6856;51.460;7.158;2022-09-09T14:20:38;99708.00;;;24.00
13570;BMP180;6856;51.460;7.158;2022-09-09T14:23:14;99715.00;;;23.90
13570;BMP180;6856;51.460;7.158;2022-09-09T14:25:47;99710.00;;;24.00
13570;BMP180;6856;51.460;7.158;2022-09-09T14:28:21;99720.00;;;24.00
13570;BMP180;6856;51.460;7.158;2022-09-09T14:31:16;99725.00;;;24.10
13570;BMP180;6856;51.460;7.158;2022-09-09T14:33:50;99716.00;;;24.10
13570;BMP180;6856;51.460;7.158;2022-09-09T14:36:24;99719.00;;;24.10
13570;BMP180;6856;51.460;7.158;2022-09-09T14:38:57;99720.00;;;24.20
13570;BMP180;6856;51.460;7.158;2022-09-09T14:41:31;99729.00;;;24.10
13570;BMP180;6856;51.460;7.158;2022-09-09T14:44:04;99727.00;;;24.10
13570;BMP180;6856;51.460;7.158;2022-09-09T14:46:39;99733.00;;;24.10
13570;BMP180;6856;51.460;7.158;2022-09-09T14:49:14;99668.00;;;24.10
13570;BMP180;6856;51.460;7.158;2022-09-09T14:51:48;99710.00;;;24.10
13570;BMP180;6856;51.460;7.158;2022-09-09T14:54:21;99667.00;;;24.10
13570;BMP180;6856;51.460;7.158;2022-09-09T14:56:55;99710.00;;;24.10
13570;BMP180;6856;51.460;7.158;2022-09-09T14:59:29;99703.00;;;24.10
13570;BMP180;6856;51.460;7.158;2022-09-09T15:02:05;99698.00;;;24.10
13570;BMP180;6856;51.460;7.158;2022-09-09T15:04:39;99698.00;;;24.10
13570;BMP180;6856;51.460;7.158;2022-09-09T15:07:12;99699.00;;;24.10
13570;BMP180;6856;51.460;7.158;2022-09-09T15:09:45;99700.00;;;24.10
13570;BMP180;6856;51.460;7.158;2022-09-09T15:12:20;99709.00;;;24.10
13570;BMP180;6856;51.460;7.158;2022-09-09T15:14:54;99742.00;;;24.10
13570;BMP180;6856;51.460;7.158;2022-09-09T15:17:29;99732.00;;;24.00
13570;BMP180;6856;51.460;7.158;2022-09-09T15:20:03;99761.00;;;23.90
13570;BMP180;6856;51.460;7.158;2022-09-09T15:22:37;99762.00;;;23.80
13570;BMP180;6856;51.460;7.158;2022-09-09T15:25:12;99756.00;;;23.70
13570;BMP180;6856;51.460;7.158;2022-09-09T15:27:45;99749.00;;;23.60
13570;BMP180;6856;51.460;7.158;2022-09-09T15:30:18;99768.00;;;23.50
13570;BMP180;6856;51.460;7.158;2022-09-09T15:32:53;99751.00;;;23.40
13570;BMP180;6856;51.460;7.158;2022-09-09T15:35:27;99781.00;;;23.40
13570;BMP180;6856;51.460;7.158;2022-09-09T15:38:09;99780.00;;;23.20